sensor_id;sensor_type;location;lat;lon;timestamp;temperature;humidity
52125;DHT22;38119;52.710;6.398;2023-01-28T00:01:09;3.40;99.90
52125;DHT22;38119;52.710;6.398;2023-01-28T00:03:36;3.50;99.90
52125;DHT22;38119;52.710;6.398;2023-01-28T00:06:08;3.40;99.90
52125;DHT22;38119;52.710;6.398;2023-01-28T00:08:33;3.40;99.90
52125;DHT22;38119;52.710;6.398;2023-01-28T00:11:00;3.50;99.90
52125;DHT22;38119;52.710;6.398;2023-01-28T00:13:27;3.40;99.90
52125;DHT22;38119;52.710;6.398;2023-01-28T00:15:56;3.40;99.90
52125;DHT22;38119;52.710;6.398;2023-01-28T00:18:24;3.40;99.90
52125;DHT22;38119;52.710;6.398;2023-01-28T00:21:04;3.40;99.90
52125;DHT22;38119;52.710;6.398;2023-01-28T00:23:32;3.40;99.90
52125;DHT22;38119;52.710;6.398;2023-01-28T00:26:00;3.40;99.90
52125;DHT22;38119;52.710;6.398;2023-01-28T00:28:26;3.40;99.90
52125;DHT22;38119;52.710;6.398;2023-01-28T00:30:51;3.40;99.90
52125;DHT22;38119;52.710;6.398;2023-01-28T00:33:17;3.40;99.90
52125;DHT22;38119;52.710;6.398;2023-01-28T00:35:43;3.40;99.90
52125;DHT22;38119;52.710;6.398;2023-01-28T00:38:09;3.40;99.90
52125;DHT22;38119;52.710;6.398;2023-01-28T00:40:35;3.40;99.90
52125;DHT22;38119;52.710;6.398;2023-01-28T00:43:00;3.40;99.90
52125;DHT22;38119;52.710;6.398;2023-01-28T00:45:26;3.40;99.90
52125;DHT22;38119;52.710;6.398;2023-01-28T00:47:52;3.40;99.90
52125;DHT22;38119;52.710;6.398;2023-01-28T00:50:19;3.40;99.90
52125;DHT22;38119;52.710;6.398;2023-01-28T00:52:46;3.40;99.90
52125;DHT22;38119;52.710;6.398;2023-01-28T00:55:12;3.40;99.90
52125;DHT22;38119;52.710;6.398;2023-01-28T00:57:38;3.40;99.90
52125;DHT22;38119;52.710;6.398;2023-01-28T01:00:04;3.40;99.90
52125;DHT22;38119;52.710;6.398;2023-01-28T01:02:31;3.40;99.90
52125;DHT22;38119;52.710;6.398;2023-01-28T01:04:56;3.40;99.90
52125;DHT22;38119;52.710;6.398;2023-01-28T01:07:29;3.40;99.90
52125;DHT22;38119;52.710;6.398;2023-01-28T01:10:11;3.40;99.90
52125;DHT22;38119;52.710;6.398;2023-01-28T01:12:38;3.40;99.90
52125;DHT22;38119;52.710;6.398;2023-01-28T01:15:05;3.40;99.90
52125;DHT22;38119;52.710;6.398;2023-01-28T01:17:37;3.40;99.90
52125;DHT22;38119;52.710;6.398;2023-01-28T01:20:05;3.30;99.90
52125;DHT22;38119;52.710;6.398;2023-01-28T01:22:35;3.40;99.90
52125;DHT22;38119;52.710;6.398;2023-01-28T01:25:01;3.40;99.90
52125;DHT22;38119;52.710;6.398;2023-01-28T01:27:29;3.30;99.90
52125;DHT22;38119;52.710;6.398;2023-01-28T01:29:55;3.30;99.90
52125;DHT22;38119;52.710;6.398;2023-01-28T01:32:20;3.30;99.90
52125;DHT22;38119;52.710;6.398;2023-01-28T01:34:46;3.30;99.90
52125;DHT22;38119;52.710;6.398;2023-01-28T01:37:12;3.30;99.90
52125;DHT22;38119;52.710;6.398;2023-01-28T01:39:38;3.30;99.90
52125;DHT22;38119;52.710;6.398;2023-01-28T01:42:03;3.30;99.90
52125;DHT22;38119;52.710;6.398;2023-01-28T01:47:18;3.30;99.90
52125;DHT22;38119;52.710;6.398;2023-01-28T01:49:45;3.30;99.90
52125;DHT22;38119;52.710;6.398;2023-01-28T01:52:15;3.30;99.90
52125;DHT22;38119;52.710;6.398;2023-01-28T01:54:45;3.30;99.90
52125;DHT22;38119;52.710;6.398;2023-01-28T01:57:15;3.30;99.90
52125;DHT22;38119;52.710;6.398;2023-01-28T01:59:42;3.30;99.90
52125;DHT22;38119;52.710;6.398;2023-01-28T02:02:10;3.20;99.90
52125;DHT22;38119;52.710;6.398;2023-01-28T02:04:41;3.20;99.90
52125;DHT22;38119;52.710;6.398;2023-01-28T02:07:10;3.20;99.90
52125;DHT22;38119;52.710;6.398;2023-01-28T02:09:37;3.20;99.90
52125;DHT22;38119;52.710;6.398;2023-01-28T02:14:38;3.20;99.90
52125;DHT22;38119;52.710;6.398;2023-01-28T02:17:05;3.20;99.90
52125;DHT22;38119;52.710;6.398;2023-01-28T02:19:52;3.20;99.90
52125;DHT22;38119;52.710;6.398;2023-01-28T02:30:26;3.10;99.90
52125;DHT22;38119;52.710;6.398;2023-01-28T02:32:58;3.10;99.90
52125;DHT22;38119;52.710;6.398;2023-01-28T02:35:38;3.10;99.90
52125;DHT22;38119;52.710;6.398;2023-01-28T02:38:25;3.10;99.90
52125;DHT22;38119;52.710;6.398;2023-01-28T02:40:56;3.10;99.90
52125;DHT22;38119;52.710;6.398;2023-01-28T02:43:45;3.10;99.90
52125;DHT22;38119;52.710;6.398;2023-01-28T02:46:34;3.10;99.90
52125;DHT22;38119;52.710;6.398;2023-01-28T02:49:26;3.10;99.90
52125;DHT22;38119;52.710;6.398;2023-01-28T02:54:54;3.10;99.90
52125;DHT22;38119;52.710;6.398;2023-01-28T02:57:34;3.10;99.90
52125;DHT22;38119;52.710;6.398;2023-01-28T03:00:16;3.00;99.90
52125;DHT22;38119;52.710;6.398;2023-01-28T03:02:51;3.00;99.90
52125;DHT22;38119;52.710;6.398;2023-01-28T03:05:29;3.00;99.90
52125;DHT22;38119;52.710;6.398;2023-01-28T03:07:56;3.00;99.90
52125;DHT22;38119;52.710;6.398;2023-01-28T03:10:25;3.00;99.90
52125;DHT22;38119;52.710;6.398;2023-01-28T03:12:54;3.00;99.90
52125;DHT22;38119;52.710;6.398;2023-01-28T03:15:45;3.00;99.90
52125;DHT22;38119;52.710;6.398;2023-01-28T03:18:37;3.00;99.90
52125;DHT22;38119;52.710;6.398;2023-01-28T03:21:30;3.00;99.90
52125;DHT22;38119;52.710;6.398;2023-01-28T03:24:25;2.90;99.90
52125;DHT22;38119;52.710;6.398;2023-01-28T03:27:24;2.90;99.90
52125;DHT22;38119;52.710;6.398;2023-01-28T03:30:14;2.90;99.90
52125;DHT22;38119;52.710;6.398;2023-01-28T03:33:00;2.90;99.90
52125;DHT22;38119;52.710;6.398;2023-01-28T03:35:46;2.90;99.90
52125;DHT22;38119;52.710;6.398;2023-01-28T03:38:30;2.90;99.90
52125;DHT22;38119;52.710;6.398;2023-01-28T03:41:02;3.00;99.90
52125;DHT22;38119;52.710;6.398;2023-01-28T03:43:29;2.90;99.90
52125;DHT22;38119;52.710;6.398;2023-01-28T03:45:55;3.00;99.90
52125;DHT22;38119;52.710;6.398;2023-01-28T03:48:23;2.90;99.90
52125;DHT22;38119;52.710;6.398;2023-01-28T03:50:49;2.90;99.90
52125;DHT22;38119;52.710;6.398;2023-01-28T03:53:16;2.90;99.90
52125;DHT22;38119;52.710;6.398;2023-01-28T03:55:42;2.90;99.90
52125;DHT22;38119;52.710;6.398;2023-01-28T03:58:09;2.90;99.90
52125;DHT22;38119;52.710;6.398;2023-01-28T04:00:35;2.90;99.90
52125;DHT22;38119;52.710;6.398;2023-01-28T04:03:10;2.90;99.90
52125;DHT22;38119;52.710;6.398;2023-01-28T04:05:44;2.90;99.90
52125;DHT22;38119;52.710;6.398;2023-01-28T04:08:10;2.90;99.90
52125;DHT22;38119;52.710;6.398;2023-01-28T04:10:37;2.90;99.90
52125;DHT22;38119;52.710;6.398;2023-01-28T04:13:04;2.90;99.90
52125;DHT22;38119;52.710;6.398;2023-01-28T04:15:29;2.90;99.90
52125;DHT22;38119;52.710;6.398;2023-01-28T04:17:55;2.90;99.90
52125;DHT22;38119;52.710;6.398;2023-01-28T04:20:21;2.90;99.90
52125;DHT22;38119;52.710;6.398;2023-01-28T04:22:46;2.90;99.90
52125;DHT22;38119;52.710;6.398;2023-01-28T04:25:12;2.90;99.90
52125;DHT22;38119;52.710;6.398;2023-01-28T04:27:38;2.90;99.90
52125;DHT22;38119;52.710;6.398;2023-01-28T04:30:04;2.80;99.90
52125;DHT22;38119;52.710;6.398;2023-01-28T04:32:29;2.80;99.90
52125;DHT22;38119;52.710;6.398;2023-01-28T04:34:55;2.80;99.90
52125;DHT22;38119;52.710;6.398;2023-01-28T04:37:21;2.80;99.90
52125;DHT22;38119;52.710;6.398;2023-01-28T04:39:46;3.60;99.90
52125;DHT22;38119;52.710;6.398;2023-01-28T04:42:12;2.80;99.90
52125;DHT22;38119;52.710;6.398;2023-01-28T04:44:37;2.80;99.90
52125;DHT22;38119;52.710;6.398;2023-01-28T04:47:03;2.80;99.90
52125;DHT22;38119;52.710;6.398;2023-01-28T04:49:29;2.80;99.90
52125;DHT22;38119;52.710;6.398;2023-01-28T04:51:54;2.80;99.90
52125;DHT22;38119;52.710;6.398;2023-01-28T04:54:20;2.80;99.90
52125;DHT22;38119;52.710;6.398;2023-01-28T04:56:45;2.80;99.90
52125;DHT22;38119;52.710;6.398;2023-01-28T04:59:11;2.80;99.90
52125;DHT22;38119;52.710;6.398;2023-01-28T05:01:37;2.80;99.90
52125;DHT22;38119;52.710;6.398;2023-01-28T05:04:03;2.80;99.90
52125;DHT22;38119;52.710;6.398;2023-01-28T05:06:31;2.70;99.90
52125;DHT22;38119;52.710;6.398;2023-01-28T05:08:57;2.70;99.90
52125;DHT22;38119;52.710;6.398;2023-01-28T05:11:23;2.70;99.90
52125;DHT22;38119;52.710;6.398;2023-01-28T05:13:49;2.70;99.90
52125;DHT22;38119;52.710;6.398;2023-01-28T05:16:15;2.70;99.90
52125;DHT22;38119;52.710;6.398;2023-01-28T05:18:41;2.80;99.90
52125;DHT22;38119;52.710;6.398;2023-01-28T05:21:08;2.70;99.90
52125;DHT22;38119;52.710;6.398;2023-01-28T05:23:33;2.70;99.90
52125;DHT22;38119;52.710;6.398;2023-01-28T05:25:59;2.70;99.90
52125;DHT22;38119;52.710;6.398;2023-01-28T05:28:25;2.70;99.90
52125;DHT22;38119;52.710;6.398;2023-01-28T05:30:50;2.70;99.90
52125;DHT22;38119;52.710;6.398;2023-01-28T05:33:16;2.70;99.90
52125;DHT22;38119;52.710;6.398;2023-01-28T05:35:42;2.70;99.90
52125;DHT22;38119;52.710;6.398;2023-01-28T05:38:08;2.70;99.90
52125;DHT22;38119;52.710;6.398;2023-01-28T05:40:33;2.70;99.90
52125;DHT22;38119;52.710;6.398;2023-01-28T05:42:59;2.70;99.90
52125;DHT22;38119;52.710;6.398;2023-01-28T05:45:25;2.70;99.90
52125;DHT22;38119;52.710;6.398;2023-01-28T05:47:51;2.70;99.90
52125;DHT22;38119;52.710;6.398;2023-01-28T05:50:16;2.70;99.90
52125;DHT22;38119;52.710;6.398;2023-01-28T05:52:42;2.70;99.90
52125;DHT22;38119;52.710;6.398;2023-01-28T05:55:09;2.70;99.90
52125;DHT22;38119;52.710;6.398;2023-01-28T05:57:35;2.70;99.90
52125;DHT22;38119;52.710;6.398;2023-01-28T06:00:01;3.00;99.90
52125;DHT22;38119;52.710;6.398;2023-01-28T06:02:26;2.70;99.90
52125;DHT22;38119;52.710;6.398;2023-01-28T06:04:52;2.70;99.90
52125;DHT22;38119;52.710;6.398;2023-01-28T06:07:17;2.70;99.90
52125;DHT22;38119;52.710;6.398;2023-01-28T06:09:45;2.70;99.90
52125;DHT22;38119;52.710;6.398;2023-01-28T06:12:11;2.60;99.90
52125;DHT22;38119;52.710;6.398;2023-01-28T06:14:37;2.60;99.90
52125;DHT22;38119;52.710;6.398;2023-01-28T06:17:06;2.60;99.90
52125;DHT22;38119;52.710;6.398;2023-01-28T06:19:31;2.60;99.90
52125;DHT22;38119;52.710;6.398;2023-01-28T06:21:57;2.60;99.90
52125;DHT22;38119;52.710;6.398;2023-01-28T06:24:22;2.60;99.90
52125;DHT22;38119;52.710;6.398;2023-01-28T06:26:48;2.60;99.90
52125;DHT22;38119;52.710;6.398;2023-01-28T06:29:14;2.60;99.90
52125;DHT22;38119;52.710;6.398;2023-01-28T06:31:40;2.60;99.90
52125;DHT22;38119;52.710;6.398;2023-01-28T06:34:05;2.60;99.90
52125;DHT22;38119;52.710;6.398;2023-01-28T06:36:31;2.60;99.90
52125;DHT22;38119;52.710;6.398;2023-01-28T06:38:57;2.60;99.90
52125;DHT22;38119;52.710;6.398;2023-01-28T06:41:23;2.60;99.90
52125;DHT22;38119;52.710;6.398;2023-01-28T06:43:48;2.60;99.90
52125;DHT22;38119;52.710;6.398;2023-01-28T06:46:14;2.60;99.90
52125;DHT22;38119;52.710;6.398;2023-01-28T06:48:40;2.50;99.90
52125;DHT22;38119;52.710;6.398;2023-01-28T06:51:08;2.50;99.90
52125;DHT22;38119;52.710;6.398;2023-01-28T06:53:34;2.60;99.90
52125;DHT22;38119;52.710;6.398;2023-01-28T06:55:59;2.50;99.90
52125;DHT22;38119;52.710;6.398;2023-01-28T06:58:25;2.50;99.90
52125;DHT22;38119;52.710;6.398;2023-01-28T07:00:52;2.50;99.90
52125;DHT22;38119;52.710;6.398;2023-01-28T07:03:17;2.50;99.90
52125;DHT22;38119;52.710;6.398;2023-01-28T07:05:43;2.50;99.90
52125;DHT22;38119;52.710;6.398;2023-01-28T07:08:09;2.50;99.90
52125;DHT22;38119;52.710;6.398;2023-01-28T07:10:35;2.50;99.90
52125;DHT22;38119;52.710;6.398;2023-01-28T07:13:00;2.40;99.90
52125;DHT22;38119;52.710;6.398;2023-01-28T07:15:26;2.40;99.90
52125;DHT22;38119;52.710;6.398;2023-01-28T07:17:52;2.40;99.90
52125;DHT22;38119;52.710;6.398;2023-01-28T07:20:17;2.40;99.90
52125;DHT22;38119;52.710;6.398;2023-01-28T07:22:43;2.40;99.90
52125;DHT22;38119;52.710;6.398;2023-01-28T07:25:10;2.40;99.90
52125;DHT22;38119;52.710;6.398;2023-01-28T07:27:36;2.40;99.90
52125;DHT22;38119;52.710;6.398;2023-01-28T07:30:02;2.40;99.90
52125;DHT22;38119;52.710;6.398;2023-01-28T07:32:28;2.40;99.90
52125;DHT22;38119;52.710;6.398;2023-01-28T07:34:53;2.50;99.90
52125;DHT22;38119;52.710;6.398;2023-01-28T07:37:19;2.50;99.90
52125;DHT22;38119;52.710;6.398;2023-01-28T07:39:45;2.50;99.90
52125;DHT22;38119;52.710;6.398;2023-01-28T07:42:11;2.50;99.90
52125;DHT22;38119;52.710;6.398;2023-01-28T07:44:37;2.40;99.90
52125;DHT22;38119;52.710;6.398;2023-01-28T07:47:03;2.50;99.90
52125;DHT22;38119;52.710;6.398;2023-01-28T07:49:29;2.40;99.90
52125;DHT22;38119;52.710;6.398;2023-01-28T07:51:55;2.40;99.90
52125;DHT22;38119;52.710;6.398;2023-01-28T07:54:20;2.40;99.90
52125;DHT22;38119;52.710;6.398;2023-01-28T07:56:46;2.40;99.90
52125;DHT22;38119;52.710;6.398;2023-01-28T07:59:11;2.40;99.90
52125;DHT22;38119;52.710;6.398;2023-01-28T08:01:37;2.40;99.90
52125;DHT22;38119;52.710;6.398;2023-01-28T08:04:03;2.30;99.90
52125;DHT22;38119;52.710;6.398;2023-01-28T08:06:28;2.40;99.90
52125;DHT22;38119;52.710;6.398;2023-01-28T08:08:54;2.30;99.90
52125;DHT22;38119;52.710;6.398;2023-01-28T08:11:20;2.40;99.90
52125;DHT22;38119;52.710;6.398;2023-01-28T08:13:47;2.30;99.90
52125;DHT22;38119;52.710;6.398;2023-01-28T08:16:13;2.30;99.90
52125;DHT22;38119;52.710;6.398;2023-01-28T08:18:39;2.40;99.90
52125;DHT22;38119;52.710;6.398;2023-01-28T08:21:04;2.30;99.90
52125;DHT22;38119;52.710;6.398;2023-01-28T08:23:30;2.30;99.90
52125;DHT22;38119;52.710;6.398;2023-01-28T08:25:59;2.30;99.90
52125;DHT22;38119;52.710;6.398;2023-01-28T08:28:25;2.30;99.90
52125;DHT22;38119;52.710;6.398;2023-01-28T08:30:51;2.30;99.90
52125;DHT22;38119;52.710;6.398;2023-01-28T08:33:18;2.30;99.90
52125;DHT22;38119;52.710;6.398;2023-01-28T08:35:43;2.30;99.90
52125;DHT22;38119;52.710;6.398;2023-01-28T08:38:11;2.30;99.90
52125;DHT22;38119;52.710;6.398;2023-01-28T08:40:38;2.20;99.90
52125;DHT22;38119;52.710;6.398;2023-01-28T08:43:04;2.20;99.90
52125;DHT22;38119;52.710;6.398;2023-01-28T08:45:31;2.20;99.90
52125;DHT22;38119;52.710;6.398;2023-01-28T08:47:57;2.20;99.90
52125;DHT22;38119;52.710;6.398;2023-01-28T08:50:25;2.20;99.90
52125;DHT22;38119;52.710;6.398;2023-01-28T08:53:12;2.20;99.90
52125;DHT22;38119;52.710;6.398;2023-01-28T08:55:38;2.10;99.90
52125;DHT22;38119;52.710;6.398;2023-01-28T08:58:05;2.00;99.90
52125;DHT22;38119;52.710;6.398;2023-01-28T09:00:32;2.00;99.90
52125;DHT22;38119;52.710;6.398;2023-01-28T09:02:58;2.00;99.90
52125;DHT22;38119;52.710;6.398;2023-01-28T09:05:24;2.00;99.90
52125;DHT22;38119;52.710;6.398;2023-01-28T09:07:49;1.90;99.90
52125;DHT22;38119;52.710;6.398;2023-01-28T09:10:16;1.90;99.90
52125;DHT22;38119;52.710;6.398;2023-01-28T09:12:43;1.90;99.90
52125;DHT22;38119;52.710;6.398;2023-01-28T09:15:09;1.90;99.90
52125;DHT22;38119;52.710;6.398;2023-01-28T09:17:34;1.90;99.90
52125;DHT22;38119;52.710;6.398;2023-01-28T09:20:00;1.90;99.90
52125;DHT22;38119;52.710;6.398;2023-01-28T09:22:26;1.90;99.90
52125;DHT22;38119;52.710;6.398;2023-01-28T09:24:52;2.00;99.90
52125;DHT22;38119;52.710;6.398;2023-01-28T09:27:17;2.00;99.90
52125;DHT22;38119;52.710;6.398;2023-01-28T09:29:43;2.00;99.90
52125;DHT22;38119;52.710;6.398;2023-01-28T09:32:09;2.10;99.90
52125;DHT22;38119;52.710;6.398;2023-01-28T09:34:34;2.00;99.90
52125;DHT22;38119;52.710;6.398;2023-01-28T09:37:00;2.00;99.90
52125;DHT22;38119;52.710;6.398;2023-01-28T09:39:26;2.10;99.90
52125;DHT22;38119;52.710;6.398;2023-01-28T09:47:40;2.30;99.90
52125;DHT22;38119;52.710;6.398;2023-01-28T09:50:14;2.40;99.90
52125;DHT22;38119;52.710;6.398;2023-01-28T09:52:41;2.40;99.90
52125;DHT22;38119;52.710;6.398;2023-01-28T09:55:29;2.50;99.90
52125;DHT22;38119;52.710;6.398;2023-01-28T09:57:56;2.50;99.90
52125;DHT22;38119;52.710;6.398;2023-01-28T10:00:25;2.60;99.90
52125;DHT22;38119;52.710;6.398;2023-01-28T10:14:23;2.60;99.90
52125;DHT22;38119;52.710;6.398;2023-01-28T10:17:03;2.60;99.90
52125;DHT22;38119;52.710;6.398;2023-01-28T10:19:34;2.60;99.90
52125;DHT22;38119;52.710;6.398;2023-01-28T10:22:04;2.50;99.90
52125;DHT22;38119;52.710;6.398;2023-01-28T10:24:37;2.60;99.90
52125;DHT22;38119;52.710;6.398;2023-01-28T10:27:15;2.50;99.90
52125;DHT22;38119;52.710;6.398;2023-01-28T10:29:41;2.60;99.90
52125;DHT22;38119;52.710;6.398;2023-01-28T10:32:33;2.60;99.90
52125;DHT22;38119;52.710;6.398;2023-01-28T10:35:00;2.60;99.90
52125;DHT22;38119;52.710;6.398;2023-01-28T10:37:30;2.60;99.90
52125;DHT22;38119;52.710;6.398;2023-01-28T10:39:59;2.60;99.90
52125;DHT22;38119;52.710;6.398;2023-01-28T10:42:30;2.60;99.90
52125;DHT22;38119;52.710;6.398;2023-01-28T10:44:59;2.70;99.90
52125;DHT22;38119;52.710;6.398;2023-01-28T10:47:37;2.70;99.90
52125;DHT22;38119;52.710;6.398;2023-01-28T10:50:04;2.70;99.90
52125;DHT22;38119;52.710;6.398;2023-01-28T10:52:30;2.80;99.90
52125;DHT22;38119;52.710;6.398;2023-01-28T10:55:04;2.80;99.90
52125;DHT22;38119;52.710;6.398;2023-01-28T10:57:32;2.90;99.90
52125;DHT22;38119;52.710;6.398;2023-01-28T11:00:10;2.90;99.90
52125;DHT22;38119;52.710;6.398;2023-01-28T11:02:36;3.00;99.90
52125;DHT22;38119;52.710;6.398;2023-01-28T11:05:17;3.00;99.90
52125;DHT22;38119;52.710;6.398;2023-01-28T11:07:45;3.00;99.90
52125;DHT22;38119;52.710;6.398;2023-01-28T11:10:29;3.10;99.90
52125;DHT22;38119;52.710;6.398;2023-01-28T11:13:02;3.10;99.90
52125;DHT22;38119;52.710;6.398;2023-01-28T11:15:28;3.10;99.90
52125;DHT22;38119;52.710;6.398;2023-01-28T11:18:00;3.20;99.90
52125;DHT22;38119;52.710;6.398;2023-01-28T11:20:29;3.20;99.90
52125;DHT22;38119;52.710;6.398;2023-01-28T11:22:56;3.80;99.90
52125;DHT22;38119;52.710;6.398;2023-01-28T11:25:34;3.30;99.90
52125;DHT22;38119;52.710;6.398;2023-01-28T11:28:03;3.30;99.90
52125;DHT22;38119;52.710;6.398;2023-01-28T11:30:35;3.40;99.90
52125;DHT22;38119;52.710;6.398;2023-01-28T11:33:48;3.40;99.90
52125;DHT22;38119;52.710;6.398;2023-01-28T11:36:33;3.50;99.90
52125;DHT22;38119;52.710;6.398;2023-01-28T11:39:23;3.50;99.90
52125;DHT22;38119;52.710;6.398;2023-01-28T11:41:51;3.50;99.90
52125;DHT22;38119;52.710;6.398;2023-01-28T11:44:24;3.60;99.90
52125;DHT22;38119;52.710;6.398;2023-01-28T11:47:12;3.70;99.90
52125;DHT22;38119;52.710;6.398;2023-01-28T11:49:56;3.80;99.90
52125;DHT22;38119;52.710;6.398;2023-01-28T12:00:34;4.30;99.90
52125;DHT22;38119;52.710;6.398;2023-01-28T12:05:52;4.40;99.90
52125;DHT22;38119;52.710;6.398;2023-01-28T12:08:32;4.50;99.90
52125;DHT22;38119;52.710;6.398;2023-01-28T12:11:12;4.60;99.90
52125;DHT22;38119;52.710;6.398;2023-01-28T12:16:34;4.70;99.90
52125;DHT22;38119;52.710;6.398;2023-01-28T12:19:13;4.80;99.90
52125;DHT22;38119;52.710;6.398;2023-01-28T12:36:31;5.30;99.90
52125;DHT22;38119;52.710;6.398;2023-01-28T12:39:22;5.30;99.90
52125;DHT22;38119;52.710;6.398;2023-01-28T12:41:55;5.40;99.90
52125;DHT22;38119;52.710;6.398;2023-01-28T12:44:30;5.40;99.90
52125;DHT22;38119;52.710;6.398;2023-01-28T12:47:10;5.30;99.90
52125;DHT22;38119;52.710;6.398;2023-01-28T12:49:54;5.20;99.90
52125;DHT22;38119;52.710;6.398;2023-01-28T12:52:23;5.20;99.90
52125;DHT22;38119;52.710;6.398;2023-01-28T12:55:00;5.10;99.90
52125;DHT22;38119;52.710;6.398;2023-01-28T12:57:31;5.00;99.90
52125;DHT22;38119;52.710;6.398;2023-01-28T13:00:18;5.00;99.90
52125;DHT22;38119;52.710;6.398;2023-01-28T13:03:10;4.90;99.90
52125;DHT22;38119;52.710;6.398;2023-01-28T13:05:48;4.90;99.90
52125;DHT22;38119;52.710;6.398;2023-01-28T13:08:23;4.80;99.90
52125;DHT22;38119;52.710;6.398;2023-01-28T13:10:50;4.70;99.90
52125;DHT22;38119;52.710;6.398;2023-01-28T13:15:58;4.70;99.90
52125;DHT22;38119;52.710;6.398;2023-01-28T13:23:50;4.90;99.90
52125;DHT22;38119;52.710;6.398;2023-01-28T13:28:49;5.10;99.90
52125;DHT22;38119;52.710;6.398;2023-01-28T13:31:17;5.20;99.90
52125;DHT22;38119;52.710;6.398;2023-01-28T13:33:59;5.30;99.90
52125;DHT22;38119;52.710;6.398;2023-01-28T13:36:43;5.50;99.90
52125;DHT22;38119;52.710;6.398;2023-01-28T13:39:14;5.70;99.90
52125;DHT22;38119;52.710;6.398;2023-01-28T13:41:43;5.70;99.90
52125;DHT22;38119;52.710;6.398;2023-01-28T13:47:41;5.50;99.90
52125;DHT22;38119;52.710;6.398;2023-01-28T13:49:43;5.40;99.90
52125;DHT22;38119;52.710;6.398;2023-01-28T13:54:38;5.30;99.90
52125;DHT22;38119;52.710;6.398;2023-01-28T13:57:15;5.20;99.90
52125;DHT22;38119;52.710;6.398;2023-01-28T14:00:30;5.20;99.90
52125;DHT22;38119;52.710;6.398;2023-01-28T14:17:40;6.90;99.90
52125;DHT22;38119;52.710;6.398;2023-01-28T14:20:29;7.40;99.90
52125;DHT22;38119;52.710;6.398;2023-01-28T14:23:05;7.90;99.90
52125;DHT22;38119;52.710;6.398;2023-01-28T14:28:45;8.20;99.90
52125;DHT22;38119;52.710;6.398;2023-01-28T14:31:31;7.90;99.90
52125;DHT22;38119;52.710;6.398;2023-01-28T14:34:08;7.50;99.90
52125;DHT22;38119;52.710;6.398;2023-01-28T14:36:38;7.50;99.90
52125;DHT22;38119;52.710;6.398;2023-01-28T14:39:10;8.10;99.90
52125;DHT22;38119;52.710;6.398;2023-01-28T14:41:36;7.70;99.90
52125;DHT22;38119;52.710;6.398;2023-01-28T14:44:02;7.60;99.90
52125;DHT22;38119;52.710;6.398;2023-01-28T14:46:42;6.80;99.90
52125;DHT22;38119;52.710;6.398;2023-01-28T14:49:24;6.40;99.90
52125;DHT22;38119;52.710;6.398;2023-01-28T14:57:14;5.60;99.90
52125;DHT22;38119;52.710;6.398;2023-01-28T14:59:54;5.70;99.90
52125;DHT22;38119;52.710;6.398;2023-01-28T15:02:24;5.30;99.90
52125;DHT22;38119;52.710;6.398;2023-01-28T15:04:51;5.50;99.90
52125;DHT22;38119;52.710;6.398;2023-01-28T15:12:25;5.10;99.90
52125;DHT22;38119;52.710;6.398;2023-01-28T15:14:51;5.00;99.90
52125;DHT22;38119;52.710;6.398;2023-01-28T15:17:23;5.00;99.90
52125;DHT22;38119;52.710;6.398;2023-01-28T15:19:49;4.90;99.90
52125;DHT22;38119;52.710;6.398;2023-01-28T15:22:16;4.80;99.90
52125;DHT22;38119;52.710;6.398;2023-01-28T15:24:43;4.80;99.90
52125;DHT22;38119;52.710;6.398;2023-01-28T15:27:16;4.70;99.90
52125;DHT22;38119;52.710;6.398;2023-01-28T15:29:51;4.70;99.90
52125;DHT22;38119;52.710;6.398;2023-01-28T15:32:28;4.70;99.90
52125;DHT22;38119;52.710;6.398;2023-01-28T15:34:54;4.60;99.90
52125;DHT22;38119;52.710;6.398;2023-01-28T15:37:20;4.60;99.90
52125;DHT22;38119;52.710;6.398;2023-01-28T15:39:46;4.60;99.90
52125;DHT22;38119;52.710;6.398;2023-01-28T15:42:22;4.50;99.90
52125;DHT22;38119;52.710;6.398;2023-01-28T15:44:50;4.50;99.90
52125;DHT22;38119;52.710;6.398;2023-01-28T15:47:23;4.50;99.90
52125;DHT22;38119;52.710;6.398;2023-01-28T15:49:53;4.40;99.90
52125;DHT22;38119;52.710;6.398;2023-01-28T15:52:20;4.80;99.90
52125;DHT22;38119;52.710;6.398;2023-01-28T15:54:53;4.40;99.90
52125;DHT22;38119;52.710;6.398;2023-01-28T15:57:20;4.40;99.90
52125;DHT22;38119;52.710;6.398;2023-01-28T15:59:46;4.30;99.90
52125;DHT22;38119;52.710;6.398;2023-01-28T16:02:23;4.30;99.90
52125;DHT22;38119;52.710;6.398;2023-01-28T16:05:04;4.30;99.90
52125;DHT22;38119;52.710;6.398;2023-01-28T16:07:32;4.30;99.90
52125;DHT22;38119;52.710;6.398;2023-01-28T16:10:19;4.30;99.90
52125;DHT22;38119;52.710;6.398;2023-01-28T16:12:50;4.40;99.90
52125;DHT22;38119;52.710;6.398;2023-01-28T16:15:18;4.20;99.90
52125;DHT22;38119;52.710;6.398;2023-01-28T16:17:47;4.20;99.90
52125;DHT22;38119;52.710;6.398;2023-01-28T16:20:26;4.20;99.90
52125;DHT22;38119;52.710;6.398;2023-01-28T16:23:02;4.80;99.90
52125;DHT22;38119;52.710;6.398;2023-01-28T16:25:33;5.20;99.90
52125;DHT22;38119;52.710;6.398;2023-01-28T16:28:01;4.20;99.90
52125;DHT22;38119;52.710;6.398;2023-01-28T16:30:27;4.10;99.90
52125;DHT22;38119;52.710;6.398;2023-01-28T16:32:54;4.10;99.90
52125;DHT22;38119;52.710;6.398;2023-01-28T16:35:27;4.10;99.90
52125;DHT22;38119;52.710;6.398;2023-01-28T16:37:53;4.10;99.90
52125;DHT22;38119;52.710;6.398;2023-01-28T16:40:21;4.10;99.90
52125;DHT22;38119;52.710;6.398;2023-01-28T16:42:48;4.10;99.90
52125;DHT22;38119;52.710;6.398;2023-01-28T16:45:24;4.00;99.90
52125;DHT22;38119;52.710;6.398;2023-01-28T16:47:51;4.00;99.90
52125;DHT22;38119;52.710;6.398;2023-01-28T16:50:18;4.00;99.90
52125;DHT22;38119;52.710;6.398;2023-01-28T16:52:47;4.00;99.90
52125;DHT22;38119;52.710;6.398;2023-01-28T16:55:16;3.90;99.90
52125;DHT22;38119;52.710;6.398;2023-01-28T16:57:44;3.90;99.90
52125;DHT22;38119;52.710;6.398;2023-01-28T17:00:18;3.90;99.90
52125;DHT22;38119;52.710;6.398;2023-01-28T17:02:45;3.90;99.90
52125;DHT22;38119;52.710;6.398;2023-01-28T17:05:11;3.90;99.90
52125;DHT22;38119;52.710;6.398;2023-01-28T17:07:37;3.90;99.90
52125;DHT22;38119;52.710;6.398;2023-01-28T17:10:03;3.90;99.90
52125;DHT22;38119;52.710;6.398;2023-01-28T17:12:29;3.90;99.90
52125;DHT22;38119;52.710;6.398;2023-01-28T17:14:55;3.90;99.90
52125;DHT22;38119;52.710;6.398;2023-01-28T17:17:20;3.90;99.90
52125;DHT22;38119;52.710;6.398;2023-01-28T17:19:46;3.90;99.90
52125;DHT22;38119;52.710;6.398;2023-01-28T17:22:12;3.90;99.90
52125;DHT22;38119;52.710;6.398;2023-01-28T17:24:37;3.80;99.90
52125;DHT22;38119;52.710;6.398;2023-01-28T17:27:03;3.80;99.90
52125;DHT22;38119;52.710;6.398;2023-01-28T17:29:30;3.90;99.90
52125;DHT22;38119;52.710;6.398;2023-01-28T17:31:56;3.80;99.90
52125;DHT22;38119;52.710;6.398;2023-01-28T17:34:21;3.70;99.90
52125;DHT22;38119;52.710;6.398;2023-01-28T17:36:47;3.70;99.90
52125;DHT22;38119;52.710;6.398;2023-01-28T17:39:12;3.70;99.90
52125;DHT22;38119;52.710;6.398;2023-01-28T17:41:38;3.30;99.90
52125;DHT22;38119;52.710;6.398;2023-01-28T17:44:04;3.70;99.90
52125;DHT22;38119;52.710;6.398;2023-01-28T17:46:30;3.70;99.90
52125;DHT22;38119;52.710;6.398;2023-01-28T17:48:56;3.70;99.90